createdAt,value
2023-01-09T00:02:19.556Z,98101.75
2023-01-09T00:04:47.741Z,98104.13
2023-01-09T00:07:15.906Z,98100.84
2023-01-09T00:09:44.012Z,98088.16
2023-01-09T00:12:12.125Z,98101.25
2023-01-09T00:14:40.563Z,98089.53
2023-01-09T00:17:10.067Z,98080.25
2023-01-09T00:19:38.364Z,98091.69
2023-01-09T00:22:09.477Z,98085.72
2023-01-09T00:24:37.965Z,98077.25
2023-01-09T00:27:06.249Z,98073.88
2023-01-09T00:29:34.460Z,98051.41
2023-01-09T00:32:03.704Z,98058.31
2023-01-09T00:34:33.794Z,98069.53
2023-01-09T00:37:01.973Z,98048.09
2023-01-09T00:39:30.216Z,98049.72
2023-01-09T00:41:59.081Z,98055.72
2023-01-09T00:44:29.357Z,98052.22
2023-01-09T00:47:01.643Z,98057.28
2023-01-09T00:49:32.159Z,98059.03
2023-01-09T00:52:00.425Z,98061.50
2023-01-09T00:54:28.924Z,98053.88
2023-01-09T00:56:57.155Z,98062.22
2023-01-09T00:59:25.282Z,98047.81
2023-01-09T01:01:53.716Z,98052.97
2023-01-09T01:04:39.765Z,98045.22
2023-01-09T01:07:27.083Z,98046.03
2023-01-09T01:09:55.226Z,98052.00
2023-01-09T01:12:23.463Z,98055.53
2023-01-09T01:14:51.650Z,98053.69
2023-01-09T01:17:19.772Z,98062.13
2023-01-09T01:19:48.099Z,98069.72
2023-01-09T01:22:17.848Z,98056.84
2023-01-09T01:24:45.983Z,98060.25
2023-01-09T01:27:14.126Z,98063.56
2023-01-09T01:29:42.321Z,98044.56
2023-01-09T01:32:11.659Z,98059.22
2023-01-09T01:34:39.799Z,98067.03
2023-01-09T01:37:07.915Z,98061.78
2023-01-09T01:39:37.468Z,98070.44
2023-01-09T01:42:06.365Z,98062.59
2023-01-09T01:45:02.695Z,98059.41
2023-01-09T01:47:36.657Z,98069.72
2023-01-09T01:50:08.945Z,98068.91
2023-01-09T01:52:37.131Z,98069.84
2023-01-09T01:55:08.889Z,98058.13
2023-01-09T01:57:37.094Z,98079.75
2023-01-09T02:00:06.500Z,98072.00
2023-01-09T02:02:34.709Z,98083.13
2023-01-09T02:05:06.053Z,98078.91
2023-01-09T02:07:34.949Z,98075.41
2023-01-09T02:10:03.055Z,98079.84
2023-01-09T02:12:32.575Z,98079.94
2023-01-09T02:15:03.760Z,98079.94
2023-01-09T02:18:09.697Z,98077.50
2023-01-09T02:20:48.752Z,98075.00
2023-01-09T02:24:03.324Z,98087.06
2023-01-09T02:27:14.243Z,98075.34
2023-01-09T02:30:34.856Z,98078.16
2023-01-09T02:33:30.583Z,98065.84
2023-01-09T02:36:09.933Z,98069.25
2023-01-09T02:38:47.124Z,98073.69
2023-01-09T02:41:18.392Z,98078.16
2023-01-09T02:43:46.542Z,98079.88
2023-01-09T02:46:21.497Z,98063.59
2023-01-09T02:48:50.893Z,98076.59
2023-01-09T02:51:24.551Z,98087.09
2023-01-09T02:54:04.679Z,98082.06
2023-01-09T02:56:53.879Z,98081.34
2023-01-09T02:59:28.394Z,98099.69
2023-01-09T03:02:09.471Z,98107.03
2023-01-09T03:04:47.119Z,98093.31
2023-01-09T03:07:19.986Z,98103.94
2023-01-09T03:09:48.399Z,98118.69
2023-01-09T03:12:19.193Z,98120.75
2023-01-09T03:14:51.310Z,98141.34
2023-01-09T03:17:24.719Z,98130.34
2023-01-09T03:19:53.900Z,98139.69
2023-01-09T03:22:22.107Z,98136.22
2023-01-09T03:24:50.281Z,98141.34
2023-01-09T03:27:18.404Z,98144.97
2023-01-09T03:29:46.570Z,98151.88
2023-01-09T03:32:14.677Z,98154.63
2023-01-09T03:34:44.215Z,98154.84
2023-01-09T03:37:12.570Z,98151.34
2023-01-09T03:39:40.731Z,98160.09
2023-01-09T03:42:08.881Z,98167.91
2023-01-09T03:44:37.314Z,98167.19
2023-01-09T03:47:05.587Z,98177.72
2023-01-09T03:49:33.914Z,98189.84
2023-01-09T03:52:03.418Z,98191.84
2023-01-09T03:54:31.573Z,98196.13
2023-01-09T03:56:59.733Z,98192.66
2023-01-09T03:59:28.006Z,98200.38
2023-01-09T04:01:56.299Z,98213.25
2023-01-09T04:04:24.420Z,98214.06
2023-01-09T04:06:52.564Z,98218.38
2023-01-09T04:09:22.066Z,98225.28
2023-01-09T04:11:50.172Z,98233.09
2023-01-09T04:14:18.268Z,98245.97
2023-01-09T04:16:46.470Z,98251.03
2023-01-09T04:19:14.675Z,98252.59
2023-01-09T04:21:42.950Z,98256.06
2023-01-09T04:24:11.107Z,98267.31
2023-01-09T04:26:40.813Z,98271.72
2023-01-09T04:29:09.535Z,98282.19
2023-01-09T04:31:37.672Z,98296.00
2023-01-09T04:34:05.754Z,98313.28
2023-01-09T04:36:35.998Z,98314.13
2023-01-09T04:39:04.328Z,98315.88
2023-01-09T04:41:55.579Z,98323.81
2023-01-09T04:44:26.328Z,98322.44
2023-01-09T04:46:54.825Z,98318.22
2023-01-09T04:49:23.021Z,98321.59
2023-01-09T04:51:51.171Z,98333.66
2023-01-09T04:54:19.607Z,98326.03
2023-01-09T04:56:47.933Z,98341.25
2023-01-09T04:59:16.222Z,98345.59
2023-01-09T05:01:45.797Z,98356.69
2023-01-09T05:04:14.243Z,98352.19
2023-01-09T05:06:42.415Z,98353.03
2023-01-09T05:09:10.584Z,98359.84
2023-01-09T05:11:38.722Z,98359.91
2023-01-09T05:14:06.827Z,98377.28
2023-01-09T05:16:35.095Z,98399.75
2023-01-09T05:19:04.569Z,98405.88
2023-01-09T05:21:32.900Z,98409.41
2023-01-09T05:24:01.050Z,98405.06
2023-01-09T05:26:29.224Z,98418.69
2023-01-09T05:28:57.512Z,98416.00
2023-01-09T05:31:26.943Z,98423.63
2023-01-09T05:33:55.416Z,98421.69
2023-01-09T05:36:24.930Z,98425.28
2023-01-09T05:38:53.034Z,98437.44
2023-01-09T05:41:23.520Z,98427.41
2023-01-09T05:43:52.565Z,98429.34
2023-01-09T05:46:21.016Z,98431.19
2023-01-09T05:48:49.201Z,98433.22
2023-01-09T05:51:17.362Z,98446.09
2023-01-09T05:53:46.891Z,98439.31
2023-01-09T05:56:15.076Z,98434.97
2023-01-09T05:58:43.291Z,98441.69
2023-01-09T06:01:11.444Z,98451.16
2023-01-09T06:03:39.614Z,98447.84
2023-01-09T06:06:08.339Z,98460.06
2023-01-09T06:08:36.534Z,98466.28
2023-01-09T06:11:06.240Z,98469.81
2023-01-09T06:13:34.527Z,98477.72
2023-01-09T06:16:02.815Z,98477.81
2023-01-09T06:18:31.059Z,98486.53
2023-01-09T06:20:59.195Z,98480.09
2023-01-09T06:23:27.299Z,98491.03
2023-01-09T06:25:55.416Z,98493.69
2023-01-09T06:28:24.887Z,98486.44
2023-01-09T06:30:53.160Z,98481.66
2023-01-09T06:33:21.434Z,98487.81
2023-01-09T06:35:49.637Z,98495.72
2023-01-09T06:38:17.753Z,98487.44
2023-01-09T06:40:45.856Z,98501.41
2023-01-09T06:43:14.078Z,98504.44
2023-01-09T06:45:45.161Z,98504.78
2023-01-09T06:48:13.434Z,98504.25
2023-01-09T06:50:41.648Z,98501.88
2023-01-09T06:53:10.651Z,98497.00
2023-01-09T06:55:38.820Z,98502.31
2023-01-09T06:58:07.172Z,98505.06
2023-01-09T07:00:35.400Z,98512.09
2023-01-09T07:03:05.396Z,98498.69
2023-01-09T07:05:34.368Z,98504.09
2023-01-09T07:08:02.536Z,98496.38
2023-01-09T07:10:30.696Z,98500.78
2023-01-09T07:12:58.826Z,98493.06
2023-01-09T07:15:27.106Z,98504.25
2023-01-09T07:17:55.406Z,98513.06
2023-01-09T07:20:24.944Z,98501.13
2023-01-09T07:22:53.913Z,98523.44
2023-01-09T07:25:22.173Z,98518.38
2023-01-09T07:27:50.430Z,98526.19
2023-01-09T07:30:19.321Z,98528.03
2023-01-09T07:32:47.437Z,98535.72
2023-01-09T07:35:15.749Z,98530.47
2023-01-09T07:37:45.440Z,98533.97
2023-01-09T07:40:14.420Z,98533.91
2023-01-09T07:42:42.573Z,98526.19
2023-01-09T07:45:12.113Z,98525.44
2023-01-09T07:47:41.477Z,98546.63
2023-01-09T07:50:11.341Z,98533.03
2023-01-09T07:52:39.465Z,98535.72
2023-01-09T07:55:11.095Z,98535.81
2023-01-09T07:57:39.525Z,98545.25
2023-01-09T08:00:10.969Z,98547.84
2023-01-09T08:02:41.748Z,98550.28
2023-01-09T08:05:14.703Z,98564.00
2023-01-09T08:07:42.913Z,98554.53
2023-01-09T08:10:13.226Z,98569.13
2023-01-09T08:12:44.839Z,98564.63
2023-01-09T08:15:13.167Z,98559.22
2023-01-09T08:17:42.458Z,98565.94
2023-01-09T08:20:12.252Z,98565.69
2023-01-09T08:22:41.918Z,98565.59
2023-01-09T08:25:12.565Z,98564.84
2023-01-09T08:27:41.791Z,98577.63
2023-01-09T08:30:12.235Z,98574.03
2023-01-09T08:32:41.233Z,98577.94
2023-01-09T08:35:10.376Z,98570.56
2023-01-09T08:37:38.692Z,98574.50
2023-01-09T08:40:08.481Z,98571.59
2023-01-09T08:42:55.883Z,98584.25
2023-01-09T08:45:41.770Z,98590.06
2023-01-09T08:48:09.985Z,98587.22
2023-01-09T08:50:38.420Z,98587.97
2023-01-09T08:53:06.567Z,98591.28
2023-01-09T08:55:34.787Z,98593.09
2023-01-09T08:58:06.115Z,98596.75
2023-01-09T09:00:35.792Z,98593.44
2023-01-09T09:03:04.875Z,98593.09
2023-01-09T09:05:33.803Z,98602.53
2023-01-09T09:08:02.683Z,98594.91
2023-01-09T09:10:30.953Z,98591.41
2023-01-09T09:12:59.733Z,98605.19
2023-01-09T09:15:28.647Z,98611.31
2023-01-09T09:17:59.130Z,98606.72
2023-01-09T09:20:29.300Z,98613.41
2023-01-09T09:22:57.520Z,98618.41
2023-01-09T09:25:25.839Z,98617.47
2023-01-09T09:27:55.852Z,98626.13
2023-01-09T09:30:24.339Z,98629.44
2023-01-09T09:32:52.552Z,98638.72
2023-01-09T09:35:22.550Z,98630.91
2023-01-09T09:37:57.856Z,98628.81
2023-01-09T09:40:40.010Z,98625.88
2023-01-09T09:44:12.020Z,98620.72
2023-01-09T09:46:44.686Z,98601.00
2023-01-09T09:49:17.442Z,98618.09
2023-01-09T09:51:55.901Z,98619.38
2023-01-09T09:54:28.111Z,98622.69
2023-01-09T09:56:59.144Z,98619.28
2023-01-09T09:59:29.050Z,98625.25
2023-01-09T10:01:59.679Z,98622.63
2023-01-09T10:04:29.741Z,98616.72
2023-01-09T10:07:01.488Z,98623.03
2023-01-09T10:09:40.235Z,98614.59
2023-01-09T10:12:18.452Z,98618.81
2023-01-09T10:14:46.653Z,98614.44
2023-01-09T10:17:26.778Z,98620.66
2023-01-09T10:20:34.296Z,98614.75
2023-01-09T10:23:13.281Z,98605.56
2023-01-09T10:25:45.065Z,98605.50
2023-01-09T10:28:30.587Z,98623.22
2023-01-09T10:31:01.756Z,98622.06
2023-01-09T10:33:48.488Z,98629.59
2023-01-09T10:36:45.377Z,98622.53
2023-01-09T10:39:20.436Z,98622.34
2023-01-09T10:41:55.294Z,98627.50
2023-01-09T10:44:26.376Z,98623.09
2023-01-09T10:46:55.815Z,98611.13
2023-01-09T10:49:24.868Z,98620.50
2023-01-09T10:51:56.713Z,98619.78
2023-01-09T10:54:27.405Z,98613.69
2023-01-09T10:56:57.165Z,98615.53
2023-01-09T10:59:25.667Z,98613.97
2023-01-09T11:01:53.950Z,98623.50
2023-01-09T11:04:27.757Z,98629.66
2023-01-09T11:07:00.127Z,98632.34
2023-01-09T11:09:29.687Z,98632.34
2023-01-09T11:11:57.804Z,98634.94
2023-01-09T11:14:31.219Z,98635.75
2023-01-09T11:17:01.209Z,98632.16
2023-01-09T11:19:29.709Z,98621.69
2023-01-09T11:22:07.924Z,98623.69
2023-01-09T11:24:37.438Z,98616.81
2023-01-09T11:27:27.169Z,98624.72
2023-01-09T11:30:27.813Z,98620.09
2023-01-09T11:32:56.358Z,98628.97
2023-01-09T11:35:28.106Z,98624.78
2023-01-09T11:38:08.880Z,98624.66
2023-01-09T11:40:49.494Z,98624.78
2023-01-09T11:43:32.837Z,98617.88
2023-01-09T11:46:04.276Z,98623.56
2023-01-09T11:48:54.062Z,98625.06
2023-01-09T11:51:24.200Z,98631.50
2023-01-09T11:54:13.860Z,98617.63
2023-01-09T11:56:43.616Z,98620.56
2023-01-09T11:59:13.537Z,98620.84
2023-01-09T12:02:26.355Z,98617.06
2023-01-09T12:04:56.321Z,98623.19
2023-01-09T12:07:47.834Z,98623.09
2023-01-09T12:11:10.001Z,98621.78
2023-01-09T12:13:51.169Z,98631.41
2023-01-09T12:16:26.574Z,98613.41
2023-01-09T12:19:23.966Z,98628.28
2023-01-09T12:21:57.256Z,98624.06
2023-01-09T12:24:40.757Z,98615.50
2023-01-09T12:27:22.102Z,98612.34
2023-01-09T12:30:08.792Z,98612.25
2023-01-09T12:32:47.175Z,98624.06
2023-01-09T12:35:23.980Z,98604.25
2023-01-09T12:38:15.051Z,98613.34
2023-01-09T12:41:07.065Z,98610.69
2023-01-09T12:43:40.725Z,98610.03
2023-01-09T12:46:16.385Z,98612.44
2023-01-09T12:49:09.235Z,98621.13
2023-01-09T12:51:38.883Z,98626.38
2023-01-09T12:54:11.265Z,98620.16
2023-01-09T12:56:42.511Z,98614.91
2023-01-09T12:59:22.620Z,98618.97
2023-01-09T13:01:52.195Z,98620.44
2023-01-09T13:04:23.987Z,98621.19
2023-01-09T13:06:55.251Z,98630.81
2023-01-09T13:09:26.824Z,98623.28
2023-01-09T13:12:06.577Z,98624.28
2023-01-09T13:14:47.253Z,98627.03
2023-01-09T13:17:21.345Z,98650.59
2023-01-09T13:19:49.636Z,98643.44
2023-01-09T13:22:18.742Z,98649.69
2023-01-09T13:25:17.920Z,98650.94
2023-01-09T13:27:50.288Z,98645.78
2023-01-09T13:30:22.400Z,98656.00
2023-01-09T13:32:59.776Z,98646.47
2023-01-09T13:35:27.985Z,98644.19
2023-01-09T13:37:56.143Z,98642.38
2023-01-09T13:40:32.917Z,98652.34
2023-01-09T13:43:03.681Z,98654.75
2023-01-09T13:45:33.251Z,98650.34
2023-01-09T13:48:40.123Z,98651.84
2023-01-09T13:51:57.476Z,98649.06
2023-01-09T13:55:35.773Z,98656.63
2023-01-09T13:58:26.128Z,98660.94
2023-01-09T14:01:03.129Z,98658.72
2023-01-09T14:03:35.734Z,98666.44
2023-01-09T14:06:17.211Z,98661.63
2023-01-09T14:08:49.434Z,98664.28
2023-01-09T14:11:27.229Z,98662.63
2023-01-09T14:14:09.080Z,98668.84
2023-01-09T14:16:38.008Z,98679.72
2023-01-09T14:19:22.082Z,98673.66
2023-01-09T14:21:53.587Z,98679.63
2023-01-09T14:24:25.620Z,98682.78
2023-01-09T14:26:57.094Z,98672.22
2023-01-09T14:29:45.517Z,98691.72
2023-01-09T14:32:44.971Z,98684.94
2023-01-09T14:35:43.984Z,98680.53
2023-01-09T14:38:27.068Z,98688.88
2023-01-09T14:40:58.578Z,98692.28
2023-01-09T14:43:34.016Z,98697.59
2023-01-09T14:46:07.519Z,98687.50
2023-01-09T14:48:35.784Z,98699.44
2023-01-09T14:51:08.498Z,98705.84
2023-01-09T14:53:38.012Z,98711.13
2023-01-09T14:56:08.381Z,98717.28
2023-01-09T14:58:36.752Z,98715.09
2023-01-09T15:01:06.758Z,98728.75
2023-01-09T15:03:38.354Z,98733.06
2023-01-09T15:06:08.333Z,98738.22
2023-01-09T15:08:36.610Z,98746.75
2023-01-09T15:11:04.751Z,98754.34
2023-01-09T15:13:36.032Z,98759.41
2023-01-09T15:16:05.850Z,98756.69
2023-01-09T15:18:42.955Z,98763.31
2023-01-09T15:21:20.254Z,98764.16
2023-01-09T15:23:48.384Z,98774.53
2023-01-09T15:26:25.650Z,98769.63
2023-01-09T15:28:54.666Z,98774.91
2023-01-09T15:31:24.365Z,98763.13
2023-01-09T15:33:53.996Z,98764.28
2023-01-09T15:36:25.535Z,98774.75
2023-01-09T15:38:53.670Z,98771.50
2023-01-09T15:41:43.696Z,98769.16
2023-01-09T15:44:15.288Z,98775.25
2023-01-09T15:46:46.222Z,98770.25
2023-01-09T15:49:14.348Z,98776.38
2023-01-09T15:51:45.514Z,98782.50
2023-01-09T15:54:15.231Z,98794.38
2023-01-09T15:56:44.844Z,98792.78
2023-01-09T15:59:26.908Z,98792.13
2023-01-09T16:02:20.600Z,98800.00
2023-01-09T16:04:48.879Z,98807.88
2023-01-09T16:07:21.081Z,98821.63
2023-01-09T16:09:52.551Z,98822.63
2023-01-09T16:12:22.728Z,98826.84
2023-01-09T16:14:53.559Z,98829.41
2023-01-09T16:17:23.877Z,98835.28
2023-01-09T16:19:52.783Z,98836.22
2023-01-09T16:22:23.727Z,98837.84
2023-01-09T16:24:53.933Z,98841.28
2023-01-09T16:27:27.087Z,98843.94
2023-01-09T16:29:57.818Z,98854.44
2023-01-09T16:32:28.306Z,98863.91
2023-01-09T16:34:58.394Z,98873.41
2023-01-09T16:37:27.950Z,98874.31
2023-01-09T16:40:27.258Z,98872.66
2023-01-09T16:43:03.739Z,98872.56
2023-01-09T16:45:34.292Z,98876.00
2023-01-09T16:48:02.769Z,98881.13
2023-01-09T16:50:31.098Z,98885.34
2023-01-09T16:53:00.587Z,98887.91
2023-01-09T16:55:28.856Z,98885.41
2023-01-09T16:57:57.095Z,98888.06
2023-01-09T17:00:25.326Z,98891.47
2023-01-09T17:02:53.461Z,98897.59
2023-01-09T17:05:21.647Z,98905.44
2023-01-09T17:07:49.759Z,98898.97
2023-01-09T17:10:22.729Z,98915.34
2023-01-09T17:12:50.922Z,98920.66
2023-01-09T17:15:19.105Z,98923.28
2023-01-09T17:17:47.312Z,98920.94
2023-01-09T17:20:17.682Z,98924.50
2023-01-09T17:22:45.908Z,98922.91
2023-01-09T17:25:35.227Z,98929.72
2023-01-09T17:28:23.399Z,98935.81
2023-01-09T17:30:51.524Z,98938.47
2023-01-09T17:33:20.035Z,98937.63
2023-01-09T17:35:48.253Z,98946.25
2023-01-09T17:38:16.738Z,98950.69
2023-01-09T17:40:45.174Z,98952.28
2023-01-09T17:43:14.728Z,98954.09
2023-01-09T17:45:43.030Z,98962.78
2023-01-09T17:48:16.307Z,98972.34
2023-01-09T17:50:44.658Z,98979.31
2023-01-09T17:53:12.836Z,98985.41
2023-01-09T17:55:41.139Z,98985.50
2023-01-09T17:58:10.922Z,98995.00
2023-01-09T18:00:40.728Z,99008.06
2023-01-09T18:03:08.870Z,99016.75
2023-01-09T18:05:37.190Z,99019.44
2023-01-09T18:08:09.222Z,99027.22
2023-01-09T18:10:37.474Z,99040.25
2023-01-09T18:13:05.925Z,99035.41
2023-01-09T18:15:34.259Z,99051.78
2023-01-09T18:18:03.819Z,99055.38
2023-01-09T18:20:32.026Z,99063.28
2023-01-09T18:23:00.185Z,99068.53
2023-01-09T18:25:28.285Z,99074.69
2023-01-09T18:27:56.443Z,99079.09
2023-01-09T18:30:24.582Z,99093.72
2023-01-09T18:32:52.703Z,99096.41
2023-01-09T18:35:22.208Z,99101.69
2023-01-09T18:37:50.418Z,99105.22
2023-01-09T18:40:18.833Z,99117.19
2023-01-09T18:42:48.413Z,99118.94
2023-01-09T18:45:16.610Z,99118.94
2023-01-09T18:47:44.794Z,99129.31
2023-01-09T18:50:13.241Z,99129.31
2023-01-09T18:52:42.835Z,99132.72
2023-01-09T18:55:11.352Z,99141.19
2023-01-09T18:57:39.507Z,99149.72
2023-01-09T19:00:11.523Z,99144.66
2023-01-09T19:02:39.699Z,99158.22
2023-01-09T19:05:08.389Z,99157.34
2023-01-09T19:07:36.557Z,99157.34
2023-01-09T19:10:07.784Z,99168.38
2023-01-09T19:12:35.974Z,99170.94
2023-01-09T19:15:07.371Z,99175.16
2023-01-09T19:17:35.546Z,99180.25
2023-01-09T19:20:03.810Z,99179.31
2023-01-09T19:22:32.073Z,99193.84
2023-01-09T19:25:00.233Z,99197.22
2023-01-09T19:27:31.175Z,99195.59
2023-01-09T19:29:59.419Z,99201.34
2023-01-09T19:32:27.583Z,99200.44
2023-01-09T19:34:55.816Z,99202.16
2023-01-09T19:37:23.971Z,99204.69
2023-01-09T19:39:52.113Z,99207.09
2023-01-09T19:42:20.230Z,99212.25
2023-01-09T19:44:49.769Z,99219.06
2023-01-09T19:47:17.948Z,99224.09
2023-01-09T19:49:46.419Z,99230.97
2023-01-09T19:52:14.667Z,99237.03
2023-01-09T19:54:42.880Z,99236.06
2023-01-09T19:57:11.082Z,99247.91
2023-01-09T19:59:40.288Z,99242.78
2023-01-09T20:02:10.768Z,99253.81
2023-01-09T20:04:39.292Z,99254.53
2023-01-09T20:07:07.577Z,99263.91
2023-01-09T20:09:35.729Z,99257.84
2023-01-09T20:12:05.314Z,99265.53
2023-01-09T20:14:36.421Z,99268.97
2023-01-09T20:17:04.697Z,99263.75
2023-01-09T20:19:34.289Z,99262.94
2023-01-09T20:22:02.596Z,99276.59
2023-01-09T20:24:30.811Z,99272.31
2023-01-09T20:26:58.913Z,99272.22
2023-01-09T20:29:27.131Z,99272.22
2023-01-09T20:31:55.924Z,99283.22
2023-01-09T20:34:24.135Z,99283.97
2023-01-09T20:36:54.532Z,99287.31
2023-01-09T20:39:23.049Z,99284.63
2023-01-09T20:41:51.172Z,99288.88
2023-01-09T20:44:19.434Z,99295.59
2023-01-09T20:46:48.132Z,99298.16
2023-01-09T20:49:18.136Z,99301.72
2023-01-09T20:51:47.319Z,99299.06
2023-01-09T20:54:17.165Z,99310.09
2023-01-09T20:56:45.388Z,99311.00
2023-01-09T20:59:16.976Z,99304.19
2023-01-09T21:01:45.221Z,99311.69
2023-01-09T21:04:13.447Z,99309.13
2023-01-09T21:06:42.572Z,99318.53
2023-01-09T21:09:10.738Z,99324.53
2023-01-09T21:11:40.230Z,99328.00
2023-01-09T21:14:08.350Z,99329.66
2023-01-09T21:16:36.556Z,99337.38
2023-01-09T21:19:04.748Z,99334.88
2023-01-09T21:21:33.067Z,99337.50
2023-01-09T21:24:01.539Z,99340.03
2023-01-09T21:26:30.748Z,99346.69
2023-01-09T21:29:01.455Z,99343.94
2023-01-09T21:31:34.396Z,99347.00
2023-01-09T21:34:04.491Z,99345.09
2023-01-09T21:36:32.699Z,99349.97
2023-01-09T21:39:00.995Z,99356.63
2023-01-09T21:41:46.592Z,99358.19
2023-01-09T21:44:33.895Z,99371.81
2023-01-09T21:47:02.757Z,99369.19
2023-01-09T21:49:34.690Z,99370.97
2023-01-09T21:52:03.442Z,99368.47
2023-01-09T21:54:31.755Z,99376.16
2023-01-09T21:57:00.108Z,99366.66
2023-01-09T21:59:29.969Z,99371.81
2023-01-09T22:01:58.287Z,99379.56
2023-01-09T22:04:28.940Z,99392.34
2023-01-09T22:06:57.251Z,99381.31
2023-01-09T22:09:25.397Z,99389.78
2023-01-09T22:11:53.539Z,99396.59
2023-01-09T22:14:24.266Z,99397.34
2023-01-09T22:16:53.781Z,99416.16
2023-01-09T22:19:21.979Z,99422.84
2023-01-09T22:21:50.087Z,99422.03
2023-01-09T22:24:19.394Z,99427.22
2023-01-09T22:26:47.645Z,99425.38
2023-01-09T22:29:16.970Z,99434.00
2023-01-09T22:31:45.259Z,99436.56
2023-01-09T22:34:16.836Z,99450.34
2023-01-09T22:36:45.321Z,99441.81
2023-01-09T22:39:14.200Z,99448.63
2023-01-09T22:41:42.430Z,99451.25
2023-01-09T22:44:11.292Z,99455.56
2023-01-09T22:46:39.529Z,99465.91
2023-01-09T22:49:07.738Z,99468.41
2023-01-09T22:51:37.421Z,99470.00
2023-01-09T22:54:05.759Z,99470.78
2023-01-09T22:56:33.948Z,99471.81
2023-01-09T22:59:02.090Z,99480.09
2023-01-09T23:01:30.261Z,99485.25
2023-01-09T23:03:58.432Z,99490.38
2023-01-09T23:06:26.714Z,99495.53
2023-01-09T23:08:56.234Z,99492.94
2023-01-09T23:11:44.537Z,99505.03
2023-01-09T23:14:12.720Z,99514.56
2023-01-09T23:16:41.367Z,99512.09
2023-01-09T23:19:09.940Z,99513.06
2023-01-09T23:21:38.224Z,99519.84
2023-01-09T23:24:08.802Z,99523.34
2023-01-09T23:26:38.702Z,99530.25
2023-01-09T23:29:07.266Z,99532.09
2023-01-09T23:31:35.709Z,99533.91
2023-01-09T23:34:04.725Z,99537.38
2023-01-09T23:36:32.986Z,99545.28
2023-01-09T23:39:02.654Z,99543.53
2023-01-09T23:41:46.118Z,99540.06
2023-01-09T23:44:14.255Z,99548.44
2023-01-09T23:46:42.379Z,99554.28
2023-01-09T23:49:11.114Z,99561.94
2023-01-09T23:51:39.241Z,99565.31
2023-01-09T23:54:07.401Z,99561.19
2023-01-09T23:56:36.936Z,99580.00
2023-01-09T23:59:08.928Z,99573.44
